Time;durP1;ratioP1;P1;durP2;ratioP2;P2;SDS_P1;SDS_P2;PMS_P1;PMS_P2;Temp;Humidity;BMP_temperature;BMP_pressure;BME280_temperature;BME280_humidity;BME280_pressure;Samples;Min_cycle;Max_cycle;Signal;HPM_P1;HPM_P2
2023/03/01 00:01:29;;;;;;;2.80;2.60;;;-0.90;88.10;;;;;;5015504;28;20217;-67
2023/03/01 00:03:58;;;;;;;0.40;0.40;;;-0.90;87.40;;;;;;5006999;28;20618;-66
2023/03/01 00:06:26;;;;;;;7.38;3.25;;;-0.90;86.70;;;;;;5007812;28;20225;-66
2023/03/01 00:08:53;;;;;;;2.03;1.95;;;-1.00;87.20;;;;;;5021529;28;20296;-66
2023/03/01 00:11:22;;;;;;;2.67;1.95;;;-0.90;95.40;;;;;;5023419;28;20227;-66
2023/03/01 00:13:52;;;;;;;2.92;1.77;;;-1.50;92.40;;;;;;5015011;28;20678;-67
2023/03/01 00:16:21;;;;;;;1.98;1.80;;;-1.00;87.60;;;;;;5020241;28;20240;-66
2023/03/01 00:18:48;;;;;;;2.97;2.42;;;-1.20;92.50;;;;;;5017733;28;20191;-66
2023/03/01 00:21:16;;;;;;;7.40;2.25;;;-1.10;87.20;;;;;;5026490;28;20235;-66
2023/03/01 00:23:43;;;;;;;1.08;0.93;;;-1.00;87.40;;;;;;5025648;28;20208;-66
2023/03/01 00:26:14;;;;;;;10.55;1.80;;;-1.10;97.10;;;;;;5021758;28;20889;-66
2023/03/01 00:28:40;;;;;;;2.55;2.35;;;-1.10;88.40;;;;;;5013728;28;20201;-66
2023/03/01 00:31:09;;;;;;;1.70;1.38;;;-1.10;88.60;;;;;;5024194;28;20235;-66
2023/03/01 00:33:36;;;;;;;2.88;2.67;;;-1.20;97.20;;;;;;5007451;28;20208;-66
2023/03/01 00:36:04;;;;;;;1.32;1.24;;;-1.20;90.00;;;;;;4969390;28;1073357;-66
2023/03/01 00:38:35;;;;;;;0.60;0.60;;;-1.30;90.20;;;;;;5026114;28;20204;-66
2023/03/01 00:41:05;;;;;;;3.13;2.78;;;-1.30;90.40;;;;;;5033275;28;20224;-65
2023/03/01 00:43:36;;;;;;;1.30;1.08;;;-1.40;90.70;;;;;;5026703;28;20200;-66
2023/03/01 00:46:03;;;;;;;0.95;0.95;;;-1.30;91.10;;;;;;5023492;28;20957;-65
2023/03/01 00:48:30;;;;;;;2.15;1.98;;;-1.30;91.20;;;;;;5006256;28;20748;-65
2023/03/01 00:50:57;;;;;;;3.38;3.13;;;-1.40;91.40;;;;;;5006925;28;20236;-66
2023/03/01 00:53:23;;;;;;;3.03;2.92;;;-1.40;95.40;;;;;;5006445;28;20220;-66
2023/03/01 00:55:51;;;;;;;1.85;1.75;;;-1.40;91.50;;;;;;5008565;28;20251;-66
2023/03/01 00:58:18;;;;;;;2.17;2.10;;;-1.40;91.50;;;;;;5025285;28;20188;-66
2023/03/01 01:00:45;;;;;;;1.95;1.25;;;-1.40;91.50;;;;;;5039178;28;20897;-67
2023/03/01 01:03:12;;;;;;;3.10;2.90;;;-1.40;91.60;;;;;;5010606;28;20706;-65
2023/03/01 01:05:38;;;;;;;1.52;1.42;;;-1.40;91.50;;;;;;5007699;28;20564;-65
2023/03/01 01:08:05;;;;;;;2.45;2.25;;;-1.70;97.40;;;;;;5021293;28;20227;-65
2023/03/01 01:10:34;;;;;;;1.75;1.65;;;-1.40;91.50;;;;;;5008075;28;20225;-65
2023/03/01 01:13:02;;;;;;;3.67;1.98;;;-1.40;91.60;;;;;;5014731;28;20201;-66
2023/03/01 01:15:29;;;;;;;2.35;2.25;;;-1.50;91.60;;;;;;5007665;28;20221;-65
2023/03/01 01:17:56;;;;;;;6.18;2.55;;;-1.60;91.70;;;;;;5006999;28;20622;-66
2023/03/01 01:20:22;;;;;;;2.45;2.10;;;-1.50;92.00;;;;;;5012193;28;20196;-65
2023/03/01 01:22:51;;;;;;;1.60;1.50;;;-1.60;92.20;;;;;;5019580;28;20218;-65
2023/03/01 01:25:17;;;;;;;2.30;2.10;;;-1.60;92.30;;;;;;5024882;28;20295;-66
2023/03/01 01:27:44;;;;;;;3.67;2.22;;;-1.60;99.90;;;;;;5008642;28;20197;-66
2023/03/01 01:30:13;;;;;;;1.23;0.70;;;-1.60;92.40;;;;;;5005680;28;20205;-66
2023/03/01 01:32:40;;;;;;;1.75;1.65;;;;;;;;;;5014322;28;20211;-66
2023/03/01 01:35:08;;;;;;;1.27;1.27;;;-1.70;92.60;;;;;;5023934;28;20302;-65
2023/03/01 01:37:34;;;;;;;1.15;0.80;;;-1.60;92.90;;;;;;5013066;28;20243;-66
2023/03/01 01:40:03;;;;;;;1.92;1.83;;;-1.50;92.40;;;;;;5022340;28;20208;-65
2023/03/01 01:42:31;;;;;;;3.25;2.92;;;-1.70;97.30;;;;;;5014873;28;20204;-65
2023/03/01 01:45:27;;;;;;;1.20;1.00;;;-1.70;99.90;;;;;;5005982;28;20213;-67
2023/03/01 01:47:58;;;;;;;2.85;1.55;;;-1.60;92.60;;;;;;5000641;28;20232;-66
2023/03/01 01:50:25;;;;;;;2.10;1.60;;;-1.70;99.90;;;;;;5006679;28;20219;-66
2023/03/01 01:52:54;;;;;;;2.35;1.95;;;-1.70;92.80;;;;;;5017685;28;20196;-66
2023/03/01 01:55:24;;;;;;;1.67;1.55;;;-1.70;92.80;;;;;;5026423;28;20254;-66
2023/03/01 01:57:54;;;;;;;2.03;1.83;;;-1.60;99.90;;;;;;5008972;28;20708;-66
2023/03/01 02:00:24;;;;;;;2.85;1.95;;;-2.30;99.90;;;;;;5042884;28;20225;-67
2023/03/01 02:02:56;;;;;;;2.42;2.33;;;-1.60;93.20;;;;;;5012833;28;20205;-65
2023/03/01 02:05:30;;;;;;;0.50;0.50;;;-1.50;99.90;;;;;;5007478;28;20251;-65
2023/03/01 02:07:59;;;;;;;2.58;1.95;;;-1.50;93.10;;;;;;5013213;28;20209;-66
2023/03/01 02:10:27;;;;;;;2.80;1.98;;;-1.50;96.00;;;;;;5017606;28;20730;-66
2023/03/01 02:12:56;;;;;;;0.73;0.73;;;-1.40;93.30;;;;;;5017870;28;20192;-65
2023/03/01 02:15:26;;;;;;;5.65;2.72;;;-1.40;93.30;;;;;;5026010;28;20286;-68
2023/03/01 02:17:56;;;;;;;6.50;3.15;;;-1.40;93.20;;;;;;5007168;28;20255;-66
2023/03/01 02:20:30;;;;;;;3.78;2.17;;;-1.40;93.00;;;;;;5009210;28;20270;-66
2023/03/01 02:22:58;;;;;;;3.58;2.33;;;;;;;;;;5021707;28;20873;-66
2023/03/01 02:25:36;;;;;;;1.98;1.88;;;-1.80;99.90;;;;;;5006550;28;20224;-68
2023/03/01 02:28:11;;;;;;;3.30;3.10;;;-1.40;93.10;;;;;;5006133;28;20213;-65
2023/03/01 02:31:41;;;;;;;0.80;0.80;;;-1.40;93.00;;;;;;5006201;28;20281;-66
2023/03/01 02:33:27;;;;;;;2.55;2.15;;;;;;;;;;5006033;28;20305;-66
2023/03/01 02:35:56;;;;;;;3.63;2.25;;;-1.30;92.70;;;;;;5006896;28;20844;-66
2023/03/01 02:38:24;;;;;;;1.42;1.35;;;-1.20;93.20;;;;;;5027640;28;20237;-65
2023/03/01 02:40:52;;;;;;;1.55;1.45;;;-1.20;92.90;;;;;;5030679;28;20367;-66
2023/03/01 02:43:23;;;;;;;0.60;0.60;;;-1.30;93.10;;;;;;5024935;28;20825;-66
2023/03/01 02:45:53;;;;;;;0.93;0.93;;;-1.10;97.10;;;;;;5026888;28;20714;-66
2023/03/01 02:48:21;;;;;;;3.72;3.42;;;;;;;;;;5009000;28;20189;-66
2023/03/01 02:51:03;;;;;;;1.30;0.75;;;-1.00;93.10;;;;;;5010320;28;20290;-66
2023/03/01 02:53:40;;;;;;;1.80;1.70;;;-1.00;96.90;;;;;;5019047;28;20231;-66
2023/03/01 02:56:12;;;;;;;1.48;1.38;;;-1.00;93.30;;;;;;5023880;28;20683;-66
2023/03/01 02:58:45;;;;;;;1.60;0.82;;;-0.80;93.00;;;;;;5022848;28;20249;-66
2023/03/01 03:01:15;;;;;;;1.38;1.27;;;-0.10;97.90;;;;;;5035109;28;20220;-66
2023/03/01 03:03:42;;;;;;;2.20;2.00;;;-0.70;93.10;;;;;;5010320;28;20193;-66
2023/03/01 03:06:09;;;;;;;1.83;1.73;;;-0.60;92.90;;;;;;5011331;28;20221;-66
2023/03/01 03:08:36;;;;;;;4.47;2.47;;;-0.50;92.70;;;;;;5018083;28;20202;-66
2023/03/01 03:11:03;;;;;;;3.40;3.10;;;-0.40;92.30;;;;;;5010150;28;20391;-66
2023/03/01 03:13:30;;;;;;;4.38;3.97;;;-0.50;92.30;;;;;;5025716;28;20233;-67
2023/03/01 03:15:57;;;;;;;1.52;1.42;;;-0.60;92.50;;;;;;5020151;28;20294;-66
2023/03/01 03:18:26;;;;;;;2.38;2.28;;;-0.60;92.60;;;;;;5026539;28;20220;-66
2023/03/01 03:20:55;;;;;;;1.67;1.23;;;-0.50;92.60;;;;;;5028648;28;20301;-66
2023/03/01 03:23:22;;;;;;;1.00;1.00;;;-0.60;92.60;;;;;;5023565;28;20695;-65
2023/03/01 03:25:51;;;;;;;1.88;1.63;;;-0.60;92.70;;;;;;5015726;28;20595;-66
2023/03/01 03:28:19;;;;;;;2.92;2.58;;;-0.50;92.60;;;;;;5020643;28;20256;-66
2023/03/01 03:30:47;;;;;;;3.53;3.33;;;-0.50;92.40;;;;;;5010360;28;20248;-66
2023/03/01 03:33:14;;;;;;;1.65;1.55;;;-0.50;92.40;;;;;;5024421;28;20577;-66
2023/03/01 03:35:44;;;;;;;2.58;2.38;;;-0.40;92.30;;;;;;5027330;28;20726;-66
2023/03/01 03:38:17;;;;;;;1.50;1.33;;;-0.40;92.30;;;;;;5025717;28;20966;-66
2023/03/01 03:40:46;;;;;;;0.95;0.95;;;-0.40;91.90;;;;;;5029268;28;20233;-66
2023/03/01 03:43:15;;;;;;;1.17;1.08;;;-0.20;91.70;;;;;;5023503;28;20271;-66
2023/03/01 03:45:42;;;;;;;4.47;3.25;;;;;;;;;;5014679;28;20217;-65
2023/03/01 03:48:10;;;;;;;1.95;1.35;;;-0.20;91.30;;;;;;5014096;28;20208;-66
2023/03/01 03:50:39;;;;;;;1.23;0.82;;;-0.20;95.50;;;;;;5027569;28;20231;-66
2023/03/01 03:53:10;;;;;;;2.60;2.50;;;-0.20;91.70;;;;;;5023208;28;20198;-66
2023/03/01 03:55:39;;;;;;;1.30;1.20;;;;;;;;;;5008965;28;20225;-66
2023/03/01 03:58:09;;;;;;;2.72;2.60;;;-0.30;91.80;;;;;;5029886;28;20228;-65
2023/03/01 04:00:40;;;;;;;3.20;2.92;;;-0.30;91.90;;;;;;5038792;28;20272;-66
2023/03/01 04:03:09;;;;;;;1.23;1.23;;;-0.30;99.30;;;;;;5008154;28;20208;-66
2023/03/01 04:05:39;;;;;;;2.47;2.28;;;-0.30;92.00;;;;;;5009594;28;20232;-66
2023/03/01 04:08:08;;;;;;;1.48;1.42;;;-0.40;92.10;;;;;;5016152;28;20295;-66
2023/03/01 04:10:38;;;;;;;1.98;1.77;;;-0.40;92.20;;;;;;5027911;28;20224;-66
2023/03/01 04:13:04;;;;;;;6.20;1.88;;;-0.50;92.00;;;;;;5026711;28;20235;-66
2023/03/01 04:15:32;;;;;;;4.15;2.75;;;-0.60;96.00;;;;;;5011328;28;20233;-67
2023/03/01 04:18:00;;;;;;;1.83;1.73;;;-0.50;92.20;;;;;;5008331;28;20316;-66
2023/03/01 04:20:28;;;;;;;3.00;2.25;;;-0.60;92.20;;;;;;5022561;28;20256;-67
2023/03/01 04:22:59;;;;;;;1.75;1.67;;;-0.60;92.40;;;;;;5021653;28;20267;-66
2023/03/01 04:25:27;;;;;;;3.35;3.05;;;-0.60;92.40;;;;;;5027957;28;20212;-66
2023/03/01 04:27:54;;;;;;;0.93;0.93;;;-0.60;92.40;;;;;;5010118;28;20288;-66
2023/03/01 04:30:25;;;;;;;1.13;1.13;;;-0.60;92.50;;;;;;5007043;28;20232;-66
2023/03/01 04:32:52;;;;;;;2.75;1.50;;;-0.60;92.40;;;;;;5020319;28;20231;-66
2023/03/01 04:35:18;;;;;;;2.47;2.38;;;-0.60;92.30;;;;;;5026372;28;20289;-66
2023/03/01 04:37:45;;;;;;;1.52;1.38;;;-0.50;99.90;;;;;;5024160;28;20228;-66
2023/03/01 04:40:16;;;;;;;2.67;2.47;;;-0.20;99.90;;;;;;5022297;28;20291;-66
2023/03/01 04:42:44;;;;;;;2.05;1.95;;;-0.70;99.30;;;;;;5021278;28;20201;-66
2023/03/01 04:45:12;;;;;;;2.25;2.15;;;-0.50;96.10;;;;;;5016605;28;20197;-65
2023/03/01 04:47:40;;;;;;;2.17;2.08;;;-0.60;92.70;;;;;;5017773;28;20209;-66
2023/03/01 04:50:08;;;;;;;1.75;1.65;;;-0.60;92.50;;;;;;5006993;28;20201;-66
2023/03/01 04:52:36;;;;;;;0.93;0.93;;;;;;;;;;5010677;28;20189;-65
2023/03/01 04:55:03;;;;;;;1.77;1.67;;;-0.60;92.30;;;;;;5026912;28;20201;-66
2023/03/01 04:57:30;;;;;;;1.60;1.58;;;-0.60;92.60;;;;;;5024244;28;20244;-66
2023/03/01 04:59:58;;;;;;;1.35;1.35;;;-0.60;92.70;;;;;;5041441;28;20207;-66
2023/03/01 05:02:25;;;;;;;2.55;2.42;;;-0.60;92.90;;;;;;5007628;28;20271;-66
2023/03/01 05:04:52;;;;;;;3.20;1.38;;;-0.60;93.20;;;;;;5007788;28;20209;-66
2023/03/01 05:07:19;;;;;;;0.90;0.73;;;-0.60;92.90;;;;;;5020333;28;20228;-66
2023/03/01 05:09:47;;;;;;;6.97;5.15;;;-0.50;93.00;;;;;;5024887;28;20887;-66
2023/03/01 05:12:14;;;;;;;2.65;2.45;;;-0.50;93.00;;;;;;5020197;28;20279;-66
2023/03/01 05:14:41;;;;;;;7.07;3.35;;;-0.40;93.00;;;;;;5007298;28;20201;-66
2023/03/01 05:17:09;;;;;;;1.17;1.08;;;-0.30;96.30;;;;;;5019172;28;20234;-66
2023/03/01 05:19:36;;;;;;;6.65;4.28;;;-0.20;92.70;;;;;;5025610;28;20196;-66
2023/03/01 05:22:03;;;;;;;3.15;2.05;;;-0.10;92.30;;;;;;5026711;28;20229;-67
2023/03/01 05:24:31;;;;;;;4.38;3.97;;;0.40;99.20;;;;;;5009643;28;20909;-66
2023/03/01 05:26:58;;;;;;;2.95;2.25;;;0.20;91.50;;;;;;5014106;28;20217;-66
2023/03/01 05:29:26;;;;;;;1.05;1.05;;;0.20;91.30;;;;;;5025607;28;20821;-66
2023/03/01 05:31:54;;;;;;;3.28;3.03;;;0.20;91.30;;;;;;5024551;28;20229;-66
2023/03/01 05:34:25;;;;;;;1.48;1.38;;;0.30;91.20;;;;;;5007106;28;20202;-66
2023/03/01 05:36:52;;;;;;;1.35;1.25;;;;;;;;;;5015018;28;20232;-66
2023/03/01 05:39:22;;;;;;;1.55;1.30;;;0.30;90.80;;;;;;5026465;28;20232;-66
2023/03/01 05:41:48;;;;;;;2.38;2.10;;;0.00;93.90;;;;;;5015359;28;20221;-66
2023/03/01 05:44:15;;;;;;;3.35;2.85;;;0.40;90.90;;;;;;5026487;28;20200;-66
2023/03/01 05:46:42;;;;;;;4.65;3.28;;;0.40;90.80;;;;;;5017791;28;20882;-65
2023/03/01 05:49:09;;;;;;;2.78;2.58;;;0.40;90.70;;;;;;5018689;28;20246;-66
2023/03/01 05:51:37;;;;;;;1.45;1.35;;;0.40;90.60;;;;;;5026975;28;20228;-66
2023/03/01 05:54:05;;;;;;;1.55;1.13;;;0.50;90.60;;;;;;5026633;28;20212;-66
2023/03/01 05:56:34;;;;;;;2.78;2.55;;;0.50;90.60;;;;;;5019498;28;20214;-66
2023/03/01 05:59:01;;;;;;;1.05;1.02;;;0.40;90.30;;;;;;5014003;28;20225;-66
2023/03/01 06:01:29;;;;;;;1.83;1.70;;;0.40;90.50;;;;;;5011324;28;20221;-67
2023/03/01 06:03:56;;;;;;;1.95;1.85;;;0.60;94.50;;;;;;5006754;28;20694;-66
2023/03/01 06:06:23;;;;;;;1.77;1.25;;;0.40;90.60;;;;;;5012774;28;20214;-66
2023/03/01 06:08:52;;;;;;;2.28;2.17;;;0.40;90.60;;;;;;5026034;28;20205;-66
2023/03/01 06:11:19;;;;;;;2.17;2.08;;;0.60;98.30;;;;;;5026456;28;20223;-65
2023/03/01 06:13:47;;;;;;;4.38;1.83;;;0.50;90.70;;;;;;5028903;28;20284;-65
2023/03/01 06:16:14;;;;;;;13.52;4.00;;;0.50;90.60;;;;;;5024968;28;20588;-66
2023/03/01 06:18:41;;;;;;;1.50;1.40;;;0.40;90.60;;;;;;5014133;28;20221;-66
2023/03/01 06:21:09;;;;;;;3.33;2.10;;;0.40;90.80;;;;;;5029835;28;20235;-66
2023/03/01 06:23:36;;;;;;;2.53;2.33;;;0.40;90.80;;;;;;5019022;28;20205;-66
2023/03/01 06:26:08;;;;;;;2.22;1.88;;;0.40;91.20;;;;;;5010086;28;20221;-66
2023/03/01 06:28:35;;;;;;;5.18;2.50;;;1.10;94.80;;;;;;5009504;28;20212;-66
2023/03/01 06:31:02;;;;;;;1.90;1.60;;;0.30;97.50;;;;;;5009317;28;20225;-66
2023/03/01 06:33:29;;;;;;;5.88;2.88;;;0.50;90.70;;;;;;5018471;28;20219;-67
2023/03/01 06:35:56;;;;;;;2.58;2.47;;;0.60;90.40;;;;;;5020019;28;20225;-66
2023/03/01 06:38:23;;;;;;;4.03;2.05;;;0.80;90.20;;;;;;5009202;28;20229;-66
2023/03/01 06:40:53;;;;;;;1.25;1.20;;;0.70;90.20;;;;;;5021863;28;20224;-66
2023/03/01 06:43:22;;;;;;;1.58;1.33;;;0.70;90.40;;;;;;5010706;28;20198;-66
2023/03/01 06:45:48;;;;;;;2.60;2.42;;;0.70;90.50;;;;;;5015695;28;20229;-66
2023/03/01 06:48:15;;;;;;;3.95;2.38;;;0.70;90.40;;;;;;5029155;28;20208;-66
2023/03/01 06:50:42;;;;;;;1.88;1.08;;;0.70;90.80;;;;;;5017179;28;20606;-66
2023/03/01 06:53:09;;;;;;;1.95;1.88;;;0.70;91.00;;;;;;5010074;28;20193;-66
2023/03/01 06:55:35;;;;;;;2.28;2.13;;;0.60;90.70;;;;;;5010064;28;20590;-66
2023/03/01 06:58:03;;;;;;;3.42;3.20;;;0.80;98.20;;;;;;5022191;28;20225;-66
2023/03/01 07:00:31;;;;;;;3.40;3.20;;;0.80;90.40;;;;;;5041547;28;20622;-66
2023/03/01 07:03:01;;;;;;;4.38;3.28;;;0.80;90.30;;;;;;5021260;28;20215;-67
2023/03/01 07:05:28;;;;;;;3.65;2.47;;;0.80;97.30;;;;;;5024332;28;20225;-67
2023/03/01 07:07:56;;;;;;;1.50;1.38;;;0.80;90.40;;;;;;5015529;28;20226;-67
2023/03/01 07:10:23;;;;;;;1.10;1.00;;;0.90;90.40;;;;;;5024148;28;20550;-67
2023/03/01 07:12:49;;;;;;;5.47;4.35;;;0.90;90.40;;;;;;5019641;28;20746;-68
2023/03/01 07:15:16;;;;;;;2.00;1.88;;;0.90;90.00;;;;;;5025643;28;20220;-67
2023/03/01 07:17:47;;;;;;;4.50;4.20;;;0.90;90.00;;;;;;5014778;28;20205;-67
2023/03/01 07:20:15;;;;;;;2.10;1.95;;;1.10;90.00;;;;;;5026130;28;20212;-67
2023/03/01 07:22:42;;;;;;;4.68;2.63;;;1.10;89.90;;;;;;5021405;28;20189;-68
2023/03/01 07:25:09;;;;;;;3.08;2.53;;;1.10;89.70;;;;;;5023127;28;20197;-67
2023/03/01 07:27:37;;;;;;;2.85;2.65;;;1.10;92.80;;;;;;5012654;28;20212;-66
2023/03/01 07:30:04;;;;;;;1.67;1.58;;;1.50;97.30;;;;;;5014660;28;20204;-68
2023/03/01 07:32:31;;;;;;;2.03;1.88;;;1.20;89.20;;;;;;5014421;28;20280;-67
2023/03/01 07:35:00;;;;;;;4.50;2.10;;;1.30;88.40;;;;;;5029318;28;20203;-68
2023/03/01 07:37:27;;;;;;;3.33;1.55;;;3.40;90.40;;;;;;5009727;28;20244;-66
2023/03/01 07:39:54;;;;;;;2.65;1.70;;;1.20;88.60;;;;;;5025402;28;20977;-66
2023/03/01 07:42:20;;;;;;;9.05;3.83;;;1.20;89.10;;;;;;5012062;28;20220;-66
2023/03/01 07:44:47;;;;;;;1.77;1.63;;;1.30;89.30;;;;;;5027745;28;20205;-66
2023/03/01 07:47:14;;;;;;;2.97;1.35;;;1.80;96.60;;;;;;5025697;28;20216;-66
2023/03/01 07:49:41;;;;;;;3.80;2.13;;;1.60;92.30;;;;;;5026665;28;20205;-66
2023/03/01 07:52:11;;;;;;;4.47;4.07;;;1.80;93.10;;;;;;5010776;28;20790;-66
2023/03/01 07:54:38;;;;;;;2.25;2.15;;;1.60;87.50;;;;;;5027473;28;20569;-66
2023/03/01 07:57:04;;;;;;;3.95;1.58;;;1.50;88.00;;;;;;5015223;28;20221;-66
2023/03/01 07:59:32;;;;;;;4.32;2.13;;;1.60;87.40;;;;;;5030921;28;20225;-66
2023/03/01 08:01:59;;;;;;;4.40;2.15;;;1.70;87.40;;;;;;5019470;28;20233;-66
2023/03/01 08:04:26;;;;;;;8.20;4.15;;;1.70;87.80;;;;;;5008264;28;20213;-66
2023/03/01 08:06:53;;;;;;;0.68;0.68;;;1.90;96.60;;;;;;5019902;28;20225;-65
2023/03/01 08:09:21;;;;;;;2.60;2.40;;;1.90;87.60;;;;;;5027199;28;20561;-65
2023/03/01 08:11:48;;;;;;;2.25;1.70;;;2.00;86.70;;;;;;5014641;28;20279;-66
2023/03/01 08:14:15;;;;;;;8.35;3.80;;;2.00;86.70;;;;;;5025587;28;20207;-67
2023/03/01 08:16:42;;;;;;;3.55;3.15;;;1.90;87.50;;;;;;5016939;28;20223;-67
2023/03/01 08:19:10;;;;;;;5.88;1.55;;;2.00;87.00;;;;;;5013691;28;20296;-67
2023/03/01 08:21:38;;;;;;;3.67;2.63;;;2.00;86.90;;;;;;5019815;28;20224;-67
2023/03/01 08:24:06;;;;;;;8.90;2.42;;;2.00;87.00;;;;;;5011802;28;20233;-67
2023/03/01 08:26:34;;;;;;;5.97;2.95;;;2.10;92.40;;;;;;5019477;28;20227;-67
2023/03/01 08:29:01;;;;;;;3.83;3.53;;;2.00;87.20;;;;;;5015673;28;20198;-68
2023/03/01 08:31:30;;;;;;;4.97;1.75;;;2.00;87.20;;;;;;5015132;28;20226;-68
2023/03/01 08:33:59;;;;;;;1.58;1.58;;;2.40;95.30;;;;;;5027257;28;20209;-68
2023/03/01 08:36:28;;;;;;;4.32;3.78;;;2.40;85.10;;;;;;5025328;28;20235;-67
2023/03/01 08:38:55;;;;;;;3.92;3.53;;;2.30;85.30;;;;;;5025939;28;20247;-68
2023/03/01 08:41:22;;;;;;;3.08;2.75;;;2.50;85.20;;;;;;5022243;28;20231;-68
2023/03/01 08:43:50;;;;;;;6.82;2.58;;;2.30;85.70;;;;;;5019797;28;20663;-68
2023/03/01 08:46:17;;;;;;;4.55;2.05;;;2.40;91.10;;;;;;5011896;28;20965;-68
2023/03/01 08:48:44;;;;;;;1.52;1.42;;;2.30;86.30;;;;;;5020066;28;20276;-67
2023/03/01 08:51:12;;;;;;;5.38;3.10;;;2.20;85.90;;;;;;5014808;28;20224;-67
2023/03/01 08:53:40;;;;;;;3.25;3.00;;;2.40;86.20;;;;;;5025607;28;20227;-67
2023/03/01 08:56:07;;;;;;;3.13;2.97;;;2.30;85.90;;;;;;5018212;28;20225;-67
2023/03/01 08:58:34;;;;;;;2.13;1.80;;;2.10;86.30;;;;;;5028234;28;20204;-68
2023/03/01 09:01:07;;;;;;;4.93;4.50;;;2.10;94.40;;;;;;5033410;28;20226;-68
2023/03/01 09:03:34;;;;;;;3.65;3.35;;;2.20;86.50;;;;;;5025910;28;20211;-67
2023/03/01 09:06:01;;;;;;;2.15;2.03;;;2.40;86.80;;;;;;5020018;28;20234;-68
2023/03/01 09:08:28;;;;;;;1.42;1.33;;;2.80;85.70;;;;;;5015977;28;20207;-68
2023/03/01 09:10:55;;;;;;;4.32;2.85;;;2.80;84.80;;;;;;5018964;28;20225;-67
2023/03/01 09:13:24;;;;;;;2.58;2.45;;;2.90;84.80;;;;;;5022768;28;20211;-68
2023/03/01 09:15:51;;;;;;;2.35;1.73;;;3.10;84.80;;;;;;5011114;28;20646;-67
2023/03/01 09:18:19;;;;;;;2.70;2.60;;;3.20;83.20;;;;;;5006436;28;20197;-68
2023/03/01 09:20:46;;;;;;;3.10;2.90;;;2.90;82.20;;;;;;5009127;28;20239;-67
2023/03/01 09:23:13;;;;;;;1.63;1.52;;;2.60;84.10;;;;;;5020713;28;20211;-67
2023/03/01 09:25:40;;;;;;;2.90;1.95;;;2.90;84.30;;;;;;5025658;28;20762;-67
2023/03/01 09:28:06;;;;;;;5.43;3.60;;;3.10;82.90;;;;;;5006707;28;20589;-67
2023/03/01 09:30:33;;;;;;;4.65;2.95;;;3.10;82.70;;;;;;5007318;28;20217;-68
2023/03/01 09:33:00;;;;;;;2.05;1.90;;;3.00;83.80;;;;;;5019105;28;20308;-67
2023/03/01 09:35:28;;;;;;;2.38;2.28;;;3.10;83.70;;;;;;5024025;28;20216;-68
2023/03/01 09:37:55;;;;;;;2.95;2.47;;;3.40;83.10;;;;;;5022325;28;20232;-69
2023/03/01 09:40:27;;;;;;;1.67;1.58;;;3.60;81.90;;;;;;5022244;28;20251;-68
2023/03/01 09:43:01;;;;;;;2.75;1.83;;;3.70;79.90;;;;;;5016589;28;20201;-67
2023/03/01 09:45:33;;;;;;;3.63;3.25;;;3.70;79.30;;;;;;5026428;28;20232;-68
2023/03/01 09:48:02;;;;;;;3.30;2.33;;;3.60;79.40;;;;;;5008863;28;20216;-67
2023/03/01 09:50:36;;;;;;;11.82;2.85;;;3.60;80.00;;;;;;5024160;28;20713;-68
2023/03/01 09:53:06;;;;;;;3.67;2.95;;;3.70;79.60;;;;;;5013294;28;20201;-67
2023/03/01 09:55:38;;;;;;;11.00;4.30;;;3.70;79.90;;;;;;5014967;28;20216;-68
2023/03/01 09:58:42;;;;;;;5.28;3.15;;;3.80;79.60;;;;;;5015618;28;20656;-68
2023/03/01 10:01:34;;;;;;;5.47;2.70;;;3.90;78.30;;;;;;5028822;28;20219;-67
2023/03/01 10:04:28;;;;;;;2.60;2.40;;;4.00;78.20;;;;;;5009935;28;20260;-68
2023/03/01 10:07:11;;;;;;;4.80;2.45;;;3.90;79.40;;;;;;5020946;28;20252;-68
2023/03/01 10:09:40;;;;;;;5.30;3.17;;;4.00;82.10;;;;;;5025171;28;20224;-68
2023/03/01 10:12:11;;;;;;;2.65;2.03;;;4.10;78.10;;;;;;5019093;28;20699;-67
2023/03/01 10:14:41;;;;;;;2.42;2.22;;;4.20;77.40;;;;;;5020920;28;20209;-68
2023/03/01 10:17:18;;;;;;;3.50;3.20;;;4.10;77.50;;;;;;5011338;28;20228;-67
2023/03/01 10:19:46;;;;;;;1.45;1.35;;;4.20;77.40;;;;;;5009724;28;20213;-67
2023/03/01 10:22:21;;;;;;;3.40;3.10;;;4.10;77.40;;;;;;5023630;28;20229;-68
2023/03/01 10:24:49;;;;;;;4.10;3.13;;;4.20;76.90;;;;;;5019648;28;20315;-67
2023/03/01 10:27:23;;;;;;;2.90;1.75;;;4.30;77.00;;;;;;5017564;28;20208;-68
2023/03/01 10:29:57;;;;;;;2.90;2.70;;;4.20;77.30;;;;;;5024925;28;20545;-68
2023/03/01 10:32:25;;;;;;;2.25;2.05;;;4.20;77.00;;;;;;5013867;28;20629;-68
2023/03/01 10:34:52;;;;;;;2.97;2.50;;;4.30;77.50;;;;;;5012888;28;20315;-68
2023/03/01 10:37:24;;;;;;;6.57;3.92;;;4.40;77.80;;;;;;5016888;28;20237;-67
2023/03/01 10:39:59;;;;;;;4.25;3.20;;;4.50;76.50;;;;;;5031759;28;20315;-68
2023/03/01 10:42:29;;;;;;;3.42;2.80;;;4.50;77.90;;;;;;5013990;28;20216;-68
2023/03/01 10:44:57;;;;;;;3.20;2.90;;;4.40;77.30;;;;;;5027285;28;20250;-69
2023/03/01 10:47:25;;;;;;;3.33;2.92;;;4.50;76.80;;;;;;5014946;28;20243;-68
2023/03/01 10:49:56;;;;;;;5.60;2.20;;;4.60;76.80;;;;;;5030960;28;20291;-68
2023/03/01 10:52:26;;;;;;;3.47;2.45;;;4.60;76.40;;;;;;5031294;28;20228;-68
2023/03/01 10:54:56;;;;;;;2.60;2.45;;;4.70;76.10;;;;;;5032431;28;20207;-68
2023/03/01 10:57:30;;;;;;;2.35;2.17;;;4.60;75.40;;;;;;5016518;28;20313;-67
2023/03/01 11:00:16;;;;;;;4.70;2.90;;;4.60;76.30;;;;;;5025402;28;20247;-68
2023/03/01 11:02:43;;;;;;;2.33;2.20;;;4.60;76.40;;;;;;5020082;28;20228;-67
2023/03/01 11:05:20;;;;;;;8.93;6.50;;;4.70;76.10;;;;;;5028138;28;20738;-68
2023/03/01 11:07:52;;;;;;;9.38;4.90;;;4.70;76.00;;;;;;5028445;28;20618;-68
2023/03/01 11:10:22;;;;;;;4.03;3.63;;;4.80;76.30;;;;;;5024965;28;20205;-68
2023/03/01 11:12:49;;;;;;;6.72;2.92;;;4.80;75.60;;;;;;5032041;28;20663;-68
2023/03/01 11:15:25;;;;;;;5.88;3.80;;;4.80;75.30;;;;;;5032087;28;20211;-68
2023/03/01 11:17:53;;;;;;;2.97;2.78;;;4.90;75.50;;;;;;5013622;28;20680;-68
2023/03/01 11:20:27;;;;;;;15.20;3.50;;;4.90;75.20;;;;;;5011331;28;20256;-68
2023/03/01 11:22:58;;;;;;;4.00;2.75;;;4.90;75.30;;;;;;5012446;28;20198;-68
2023/03/01 11:25:29;;;;;;;13.18;4.38;;;4.80;76.10;;;;;;5017465;28;20465;-69
2023/03/01 11:27:57;;;;;;;1.70;1.60;;;4.90;75.10;;;;;;5031728;28;20193;-68
2023/03/01 11:30:29;;;;;;;9.80;4.82;;;4.90;76.30;;;;;;5030589;28;20247;-68
2023/03/01 11:33:06;;;;;;;4.13;2.83;;;4.90;75.40;;;;;;5030855;28;20836;-68
2023/03/01 11:35:37;;;;;;;17.98;3.67;;;5.10;76.10;;;;;;5031714;28;20232;-68
2023/03/01 11:38:16;;;;;;;3.92;3.33;;;5.10;76.30;;;;;;5029855;28;20231;-68
2023/03/01 11:40:48;;;;;;;4.05;3.58;;;5.20;75.00;;;;;;5031338;28;20225;-68
2023/03/01 11:43:21;;;;;;;6.60;3.60;;;5.20;74.40;;;;;;5031252;28;20189;-68
2023/03/01 11:46:14;;;;;;;6.03;3.95;;;5.20;74.10;;;;;;5030751;28;20232;-68
2023/03/01 11:48:50;;;;;;;4.28;2.88;;;5.20;73.40;;;;;;5030866;28;20284;-67
2023/03/01 11:51:25;;;;;;;8.75;3.92;;;5.20;73.40;;;;;;5031427;28;20224;-68
2023/03/01 11:54:10;;;;;;;4.07;2.70;;;5.20;73.80;;;;;;5014690;28;20197;-68
2023/03/01 11:56:41;;;;;;;6.47;4.43;;;5.30;73.40;;;;;;5016821;28;20304;-68
2023/03/01 11:59:46;;;;;;;6.32;3.80;;;5.30;73.80;;;;;;5031417;28;20204;-68
2023/03/01 12:02:40;;;;;;;4.13;2.00;;;5.40;74.00;;;;;;5027243;28;20873;-68
2023/03/01 12:05:39;;;;;;;5.53;3.65;;;5.50;74.70;;;;;;5031538;28;20203;-68
2023/03/01 12:08:11;;;;;;;5.35;2.25;;;5.50;74.10;;;;;;5027379;28;20208;-69
2023/03/01 12:10:50;;;;;;;3.45;3.15;;;5.50;74.30;;;;;;5023055;28;20565;-68
2023/03/01 12:13:48;;;;;;;4.55;3.95;;;5.60;73.70;;;;;;5011828;28;20201;-68
2023/03/01 12:16:28;;;;;;;3.20;2.90;;;5.60;73.00;;;;;;5020646;28;20216;-68
2023/03/01 12:19:11;;;;;;;6.43;3.80;;;5.60;74.00;;;;;;5028001;28;20205;-67
2023/03/01 12:22:04;;;;;;;4.97;4.40;;;5.60;73.50;;;;;;5031452;28;20556;-68
2023/03/01 12:25:12;;;;;;;5.30;2.88;;;5.80;73.10;;;;;;5031091;28;20232;-68
2023/03/01 12:28:05;;;;;;;4.50;2.88;;;5.80;72.60;;;;;;5009158;28;20248;-68
2023/03/01 12:30:44;;;;;;;3.75;2.72;;;5.80;72.30;;;;;;5030352;28;20220;-69
2023/03/01 12:33:23;;;;;;;11.55;3.17;;;5.80;73.30;;;;;;5030040;28;20205;-67
2023/03/01 12:36:27;;;;;;;4.55;3.95;;;5.80;74.10;;;;;;5030731;28;20677;-67
2023/03/01 12:39:05;;;;;;;6.78;3.95;;;5.90;73.30;;;;;;5028776;28;20200;-67
2023/03/01 12:41:53;;;;;;;13.68;3.30;;;6.00;73.40;;;;;;5035801;28;20229;-68
2023/03/01 12:44:37;;;;;;;4.47;2.85;;;6.00;74.90;;;;;;5029693;28;20204;-68
2023/03/01 12:47:18;;;;;;;6.75;6.15;;;6.10;72.80;;;;;;5022726;28;20669;-67
2023/03/01 12:49:49;;;;;;;5.03;2.53;;;6.20;73.40;;;;;;5022907;28;20223;-67
2023/03/01 12:52:23;;;;;;;3.80;3.25;;;6.20;73.80;;;;;;5029508;28;20207;-68
2023/03/01 12:54:52;;;;;;;7.13;4.07;;;6.20;73.40;;;;;;5030563;28;20386;-68
2023/03/01 12:57:25;;;;;;;7.45;4.47;;;6.30;71.70;;;;;;5030154;28;20564;-67
2023/03/01 13:00:09;;;;;;;6.28;3.55;;;6.30;71.10;;;;;;5031956;28;20223;-67
2023/03/01 13:02:42;;;;;;;8.30;4.30;;;6.30;71.90;;;;;;5019740;28;20647;-68
2023/03/01 13:05:27;;;;;;;4.22;3.15;;;6.40;72.30;;;;;;5024966;28;20209;-68
2023/03/01 13:08:02;;;;;;;5.55;2.97;;;6.30;72.30;;;;;;5009129;28;20193;-67
2023/03/01 13:10:35;;;;;;;3.70;3.40;;;6.40;71.90;;;;;;5009737;28;20311;-68
2023/03/01 13:13:13;;;;;;;6.35;4.32;;;6.40;72.70;;;;;;5021420;28;20561;-68